Time;durP1;ratioP1;P1;durP2;ratioP2;P2;SDS_P1;SDS_P2;PMS_P1;PMS_P2;Temp;Humidity;BMP_temperature;BMP_pressure;BME280_temperature;BME280_humidity;BME280_pressure;Samples;Min_cycle;Max_cycle;Signal;HPM_P1;HPM_P2
2023/04/17 00:01:31;;;;;;;;;;;;;;;-144.99;98.94;52452.16;5056936;28;20304;-65
2023/04/17 00:03:57;;;;;;;;;;;;;;;-144.99;98.81;52439.94;5063262;28;20105;-65
2023/04/17 00:06:26;;;;;;;;;;;;;;;-144.99;98.58;52472.56;5061709;28;20381;-64
2023/04/17 00:08:52;;;;;;;;;;;;;;;-144.99;98.49;52439.94;5052106;28;20356;-64
2023/04/17 00:11:20;;;;;;;;;;;;;;;-144.99;98.98;52454.22;4708566;28;10000012;-64
2023/04/17 00:13:47;;;;;;;;;;;;;;;-144.99;98.85;52468.47;5059317;28;20450;-70
2023/04/17 00:16:14;;;;;;;;;;;;;;;-144.99;98.72;52437.91;5056013;28;20396;-67
2023/04/17 00:18:40;;;;;;;;;;;;;;;-144.99;98.65;52452.16;5053669;28;19972;-66
2023/04/17 00:21:07;;;;;;;;;;;;;;;-144.99;98.73;52425.66;5061268;28;20234;-66
2023/04/17 00:23:33;;;;;;;;;;;;;;;-144.99;98.71;52429.75;5053308;28;20027;-67
2023/04/17 00:26:00;;;;;;;;;;;;;;;-144.99;98.79;52466.44;5054458;28;19932;-68
2023/04/17 00:28:26;;;;;;;;;;;;;;;-144.99;98.70;52403.25;5059191;28;19932;-71
2023/04/17 00:30:57;;;;;;;;;;;;;;;-144.99;98.80;52427.72;5062830;28;19972;-69
2023/04/17 00:33:23;;;;;;;;;;;;;;;-144.99;98.98;52407.31;5059537;28;19979;-70
2023/04/17 00:35:50;;;;;;;;;;;;;;;-144.99;98.99;52452.16;5055767;28;19925;-70
2023/04/17 00:38:16;;;;;;;;;;;;;;;-144.99;98.95;52409.38;5054218;28;20262;-70
2023/04/17 00:40:44;;;;;;;;;;;;;;;-144.99;98.96;52444.03;5046738;28;19967;-62
2023/04/17 00:43:10;;;;;;;;;;;;;;;-144.99;99.05;52444.03;5049347;28;20455;-65
2023/04/17 00:45:37;;;;;;;;;;;;;;;-144.99;98.95;52415.47;5047138;28;19925;-68
2023/04/17 00:48:06;;;;;;;;;;;;;;;-144.99;99.14;52409.38;5062245;28;20056;-65
2023/04/17 00:50:33;;;;;;;;;;;;;;;-144.99;99.28;52415.47;5049082;28;19961;-68
2023/04/17 00:53:00;;;;;;;;;;;;;;;-144.99;99.88;52452.16;5059549;28;19977;-72
2023/04/17 00:55:27;;;;;;;;;;;;;;;-144.99;99.73;52444.03;5050279;28;19956;-70
2023/04/17 00:57:55;;;;;;;;;;;;;;;-144.99;100.00;52435.88;5050157;28;19960;-68
2023/04/17 01:00:21;;;;;;;;;;;;;;;-144.99;100.00;52399.19;5060711;28;19933;-67
2023/04/17 01:02:48;;;;;;;;;;;;;;;-144.99;99.97;52415.47;5050236;28;20384;-70
2023/04/17 01:05:16;;;;;;;;;;;;;;;-144.99;99.71;52427.72;5068401;28;20282;-64
2023/04/17 01:07:42;;;;;;;;;;;;;;;-144.99;99.74;52439.94;5059841;28;20027;-67
2023/04/17 01:10:09;;;;;;;;;;;;;;;-144.99;99.88;52439.94;5063608;28;20443;-68
2023/04/17 01:12:36;;;;;;;;;;;;;;;-144.99;99.80;52448.09;5058438;28;20386;-66
2023/04/17 01:15:02;;;;;;;;;;;;;;;-144.99;100.00;52456.25;5061498;28;20397;-68
2023/04/17 01:17:29;;;;;;;;;;;;;;;-144.99;100.00;52456.25;5062598;28;20442;-68
2023/04/17 01:19:57;;;;;;;;;;;;;;;-144.99;100.00;52476.63;5061146;28;19932;-68
2023/04/17 01:22:25;;;;;;;;;;;;;;;-144.99;100.00;52460.31;5054893;28;19982;-66
2023/04/17 01:24:53;;;;;;;;;;;;;;;-144.99;100.00;52439.94;5054576;28;19968;-68
2023/04/17 01:27:21;;;;;;;;;;;;;;;-144.99;100.00;52393.06;5064301;28;20381;-67
2023/04/17 01:29:47;;;;;;;;;;;;;;;-144.99;99.99;52452.16;5063872;28;20215;-68
2023/04/17 01:32:14;;;;;;;;;;;;;;;-144.99;99.95;52391.03;5064206;28;20259;-68
2023/04/17 01:34:40;;;;;;;;;;;;;;;-144.99;99.99;52452.16;5068687;28;20016;-66
2023/04/17 01:37:07;;;;;;;;;;;;;;;-144.99;99.39;52439.94;5056940;28;19924;-66
2023/04/17 01:39:33;;;;;;;;;;;;;;;-144.99;100.00;52452.16;5054797;28;20419;-67
2023/04/17 01:42:01;;;;;;;;;;;;;;;-144.99;100.00;52439.94;5057356;28;19987;-67
2023/04/17 01:44:28;;;;;;;;;;;;;;;-144.99;100.00;52427.72;5057721;28;19986;-67
2023/04/17 01:46:55;;;;;;;;;;;;;;;-144.99;100.00;52411.41;5064892;28;19998;-66
2023/04/17 01:49:21;;;;;;;;;;;;;;;-144.99;100.00;52413.44;5049445;28;19929;-66
2023/04/17 01:51:48;;;;;;;;;;;;;;;-144.99;100.00;52431.78;5050813;28;19932;-68
2023/04/17 01:54:15;;;;;;;;;;;;;;;-144.99;100.00;52419.56;5056247;28;19936;-68
2023/04/17 01:56:41;;;;;;;;;;;;;;;-144.99;100.00;52431.78;5060221;28;20364;-68
2023/04/17 01:59:09;;;;;;;;;;;;;;;-144.99;100.00;52444.03;5055338;28;19986;-67
2023/04/17 02:01:36;;;;;;;;;;;;;;;-144.99;100.00;52427.72;5053822;28;20346;-66
2023/04/17 02:04:02;;;;;;;;;;;;;;;-144.99;100.00;52444.03;5060329;28;19975;-63
2023/04/17 02:06:30;;;;;;;;;;;;;;;-144.99;100.00;52431.78;5062185;28;19925;-62
2023/04/17 02:08:57;;;;;;;;;;;;;;;-144.99;100.00;52454.22;5060469;28;19924;-64
2023/04/17 02:11:23;;;;;;;;;;;;;;;-144.99;100.00;52448.09;5056331;28;20440;-64
2023/04/17 02:13:50;;;;;;;;;;;;;;;-144.99;100.00;52423.63;5059089;28;19982;-65
2023/04/17 02:16:20;;;;;;;;;;;;;;;-144.99;100.00;52439.94;5057715;28;19967;-64
2023/04/17 02:18:46;;;;;;;;;;;;;;;-144.99;100.00;52427.72;5066966;28;20368;-64
2023/04/17 02:21:13;;;;;;;;;;;;;;;-144.99;100.00;52466.44;5056628;28;19982;-65
2023/04/17 02:23:39;;;;;;;;;;;;;;;-144.99;100.00;52446.06;5065767;28;19936;-64
2023/04/17 02:26:06;;;;;;;;;;;;;;;-144.99;100.00;52476.63;5065402;28;20314;-64
2023/04/17 02:28:33;;;;;;;;;;;;;;;-144.99;100.00;52446.06;5063094;28;19939;-72
2023/04/17 02:30:59;;;;;;;;;;;;;;;-144.99;100.00;52435.88;5057891;28;19928;-66
2023/04/17 02:33:27;;;;;;;;;;;;;;;-144.99;100.00;52472.56;5067398;28;19969;-68
2023/04/17 02:35:54;;;;;;;;;;;;;;;-144.99;100.00;52435.88;5049383;28;20382;-67
2023/04/17 02:38:20;;;;;;;;;;;;;;;-144.99;100.00;52435.88;5056149;28;20027;-68
2023/04/17 02:40:47;;;;;;;;;;;;;;;-144.99;100.00;52448.09;5062123;28;19933;-67
2023/04/17 02:43:13;;;;;;;;;;;;;;;-144.99;100.00;52421.59;5056357;28;19994;-66
2023/04/17 02:45:40;;;;;;;;;;;;;;;-144.99;100.00;52452.16;5054169;28;19994;-68
2023/04/17 02:48:06;;;;;;;;;;;;;;;-144.99;100.00;52437.91;5063869;28;20394;-68
2023/04/17 02:50:34;;;;;;;;;;;;;;;-144.99;100.00;52439.94;5049970;28;20353;-70
2023/04/17 02:53:01;;;;;;;;;;;;;;;-144.99;100.00;52468.47;5066230;28;20459;-70
2023/04/17 02:55:27;;;;;;;;;;;;;;;-144.99;100.00;52444.03;5059119;28;19972;-73
2023/04/17 02:57:54;;;;;;;;;;;;;;;-144.99;100.00;52460.31;5061096;28;20073;-64
2023/04/17 03:00:21;;;;;;;;;;;;;;;-144.99;100.00;52448.09;5058912;28;19929;-64
2023/04/17 03:02:48;;;;;;;;;;;;;;;-144.99;100.00;52423.63;5052870;28;20250;-64
2023/04/17 03:05:15;;;;;;;;;;;;;;;-144.99;100.00;52464.41;5062894;28;20370;-63
2023/04/17 03:07:43;;;;;;;;;;;;;;;-144.99;100.00;52456.25;5057701;28;19932;-63
2023/04/17 03:10:10;;;;;;;;;;;;;;;-144.99;100.00;52460.31;5062945;28;19929;-63
2023/04/17 03:12:36;;;;;;;;;;;;;;;-144.99;100.00;52456.25;5062623;28;19993;-63
2023/04/17 03:15:03;;;;;;;;;;;;;;;-144.99;100.00;52444.03;5065385;28;20088;-63
2023/04/17 03:17:29;;;;;;;;;;;;;;;-144.99;100.00;52411.41;5054929;28;19925;-63
2023/04/17 03:19:56;;;;;;;;;;;;;;;-144.99;100.00;52439.94;5049529;28;20323;-64
2023/04/17 03:22:22;;;;;;;;;;;;;;;-144.99;100.00;52444.03;5062388;28;19928;-64
2023/04/17 03:24:50;;;;;;;;;;;;;;;-144.99;100.00;52397.13;5056661;28;20021;-64
2023/04/17 03:27:23;;;;;;;;;;;;;;;-144.99;100.00;52462.34;5055094;28;20466;-65
2023/04/17 03:29:49;;;;;;;;;;;;;;;-144.99;100.00;52460.31;5052048;28;20325;-70
2023/04/17 03:32:16;;;;;;;;;;;;;;;-144.99;100.00;52435.88;5067648;28;19928;-68
2023/04/17 03:34:42;;;;;;;;;;;;;;;-144.99;100.00;52415.47;5059942;28;19986;-66
2023/04/17 03:37:09;;;;;;;;;;;;;;;-144.99;100.00;52460.31;5058917;28;19925;-69
2023/04/17 03:39:35;;;;;;;;;;;;;;;-144.99;100.00;52476.63;5060663;28;19932;-68
2023/04/17 03:42:03;;;;;;;;;;;;;;;-144.99;100.00;52444.03;5064059;28;20369;-69
2023/04/17 03:44:30;;;;;;;;;;;;;;;-144.99;100.00;52427.72;5063532;28;19939;-68
2023/04/17 03:46:57;;;;;;;;;;;;;;;-144.99;100.00;52439.94;5058812;28;19974;-68
2023/04/17 03:49:24;;;;;;;;;;;;;;;-144.99;100.00;52464.41;5062728;28;19932;-67
2023/04/17 03:51:50;;;;;;;;;;;;;;;-144.99;100.00;52421.59;5056748;28;20254;-68
2023/04/17 03:54:17;;;;;;;;;;;;;;;-144.99;100.00;52484.78;5059080;28;20289;-67
2023/04/17 03:56:43;;;;;;;;;;;;;;;-144.99;100.00;52439.94;5059638;28;20026;-66
2023/04/17 03:59:11;;;;;;;;;;;;;;;-144.99;100.00;52411.41;5061198;28;19952;-63
2023/04/17 04:01:38;;;;;;;;;;;;;;;-144.99;100.00;52419.56;5061785;28;19975;-64
2023/04/17 04:04:06;;;;;;;;;;;;;;;-144.99;100.00;52448.09;5055222;28;19931;-63
2023/04/17 04:06:33;;;;;;;;;;;;;;;-144.99;100.00;52452.16;5059434;28;19964;-61
2023/04/17 04:08:59;;;;;;;;;;;;;;;-144.99;100.00;52439.94;5062666;28;19925;-61
2023/04/17 04:11:26;;;;;;;;;;;;;;;-144.99;100.00;52452.16;5060076;28;19929;-62
2023/04/17 04:13:52;;;;;;;;;;;;;;;-144.99;100.00;52419.56;5057650;28;19929;-61
2023/04/17 04:16:20;;;;;;;;;;;;;;;-144.99;100.00;52460.31;5052652;28;19986;-64
2023/04/17 04:18:47;;;;;;;;;;;;;;;-144.99;100.00;52439.94;5063285;28;20354;-63
2023/04/17 04:21:13;;;;;;;;;;;;;;;-144.99;100.00;52454.22;5054775;28;19928;-63
2023/04/17 04:23:40;;;;;;;;;;;;;;;-144.99;100.00;52462.34;5060214;28;19956;-63
2023/04/17 04:26:06;;;;;;;;;;;;;;;-144.99;100.00;52423.63;5065504;28;20012;-64
2023/04/17 04:28:33;;;;;;;;;;;;;;;-144.99;100.00;52435.88;5049290;28;19994;-64
2023/04/17 04:31:01;;;;;;;;;;;;;;;-144.99;100.00;52446.06;5055236;28;20345;-64
2023/04/17 04:33:29;;;;;;;;;;;;;;;-144.99;100.00;52452.16;5056252;28;20396;-64
2023/04/17 04:35:59;;;;;;;;;;;;;;;-144.99;100.00;52460.31;5060622;28;19924;-63
2023/04/17 04:38:29;;;;;;;;;;;;;;;-144.99;100.00;52427.72;5057256;28;20378;-65
2023/04/17 04:41:00;;;;;;;;;;;;;;;-144.99;100.00;52456.25;5059300;28;19986;-65
2023/04/17 04:43:27;;;;;;;;;;;;;;;-144.99;100.00;52470.50;5065033;28;19925;-65
2023/04/17 04:45:53;;;;;;;;;;;;;;;-144.99;100.00;52450.13;5058732;28;20115;-64
2023/04/17 04:48:20;;;;;;;;;;;;;;;-144.99;100.00;52468.47;5065532;28;19928;-64
2023/04/17 04:50:48;;;;;;;;;;;;;;;-144.99;100.00;52431.78;5063714;28;20085;-64
2023/04/17 04:53:15;;;;;;;;;;;;;;;-144.99;100.00;52452.16;5070801;28;20058;-65
2023/04/17 04:55:41;;;;;;;;;;;;;;;-144.99;100.00;52450.13;5060485;28;19925;-66
2023/04/17 04:58:07;;;;;;;;;;;;;;;-144.99;100.00;52386.94;5056130;28;19939;-66
2023/04/17 05:00:34;;;;;;;;;;;;;;;-144.99;100.00;52415.47;5060045;28;20390;-65
2023/04/17 05:03:01;;;;;;;;;;;;;;;-144.99;100.00;52439.94;5058711;28;20047;-64
2023/04/17 05:05:28;;;;;;;;;;;;;;;-144.99;100.00;52419.56;5055600;28;19932;-66
2023/04/17 05:07:56;;;;;;;;;;;;;;;-144.99;100.00;52435.88;5061513;28;20458;-66
2023/04/17 05:10:22;;;;;;;;;;;;;;;-144.99;100.00;52435.88;5064284;28;20286;-67
2023/04/17 05:12:49;;;;;;;;;;;;;;;-144.99;100.00;52435.88;5054884;28;19932;-69
2023/04/17 05:15:15;;;;;;;;;;;;;;;-144.99;100.00;52452.16;5063904;28;19956;-67
2023/04/17 05:17:42;;;;;;;;;;;;;;;-144.99;100.00;52456.25;5068066;28;19936;-67
2023/04/17 05:20:09;;;;;;;;;;;;;;;-144.99;100.00;52450.13;5062253;28;19924;-66
2023/04/17 05:22:35;;;;;;;;;;;;;;;-144.99;100.00;52403.25;5059998;28;20035;-67
2023/04/17 05:25:03;;;;;;;;;;;;;;;-144.99;100.00;52399.19;5061792;28;20303;-66
2023/04/17 05:27:30;;;;;;;;;;;;;;;-144.99;100.00;52456.25;5058293;28;19935;-65
2023/04/17 05:29:56;;;;;;;;;;;;;;;-144.99;100.00;52415.47;5062426;28;19955;-66
2023/04/17 05:32:23;;;;;;;;;;;;;;;-144.99;100.00;52405.28;5067934;28;20351;-65
2023/04/17 05:34:49;;;;;;;;;;;;;;;-144.99;100.00;52388.97;5061460;28;20491;-66
2023/04/17 05:37:16;;;;;;;;;;;;;;;-144.99;100.00;52439.94;5049414;28;19956;-64
2023/04/17 05:39:43;;;;;;;;;;;;;;;-144.99;100.00;52415.47;5057958;28;20027;-63
2023/04/17 05:42:10;;;;;;;;;;;;;;;-144.99;100.00;52374.72;5054362;28;19925;-64
2023/04/17 05:44:37;;;;;;;;;;;;;;;-144.99;100.00;52423.63;5058011;28;20302;-64
2023/04/17 05:47:04;;;;;;;;;;;;;;;-144.99;100.00;52419.56;5058204;28;19925;-65
2023/04/17 05:49:30;;;;;;;;;;;;;;;-144.99;100.00;52413.44;5060520;28;19925;-64
2023/04/17 05:51:57;;;;;;;;;;;;;;;-144.99;100.00;52391.03;5056879;28;19924;-65
2023/04/17 05:54:23;;;;;;;;;;;;;;;-144.99;100.00;52427.72;5054549;28;19928;-66
2023/04/17 05:56:50;;;;;;;;;;;;;;;-144.99;100.00;52444.03;5054912;28;20296;-65
2023/04/17 05:59:18;;;;;;;;;;;;;;;-144.99;100.00;52382.88;5059968;28;19924;-64
2023/04/17 06:01:45;;;;;;;;;;;;;;;-144.99;99.96;52419.56;5054799;28;20040;-64
2023/04/17 06:04:11;;;;;;;;;;;;;;;-144.99;99.93;52399.19;5057374;28;19925;-64
2023/04/17 06:06:38;;;;;;;;;;;;;;;-144.99;99.83;52399.19;5053668;28;19925;-65
2023/04/17 06:09:06;;;;;;;;;;;;;;;-144.99;100.00;52419.56;5053662;28;19948;-63
2023/04/17 06:11:32;;;;;;;;;;;;;;;-144.99;100.00;52399.19;5052474;28;19932;-65
2023/04/17 06:13:58;;;;;;;;;;;;;;;-144.99;99.90;52407.31;5053840;28;19967;-65
2023/04/17 06:16:26;;;;;;;;;;;;;;;-144.99;100.00;52399.19;5053221;28;19979;-64
2023/04/17 06:18:53;;;;;;;;;;;;;;;-144.99;100.00;52427.72;5065610;28;20103;-67
2023/04/17 06:21:19;;;;;;;;;;;;;;;-144.99;100.00;52399.19;5059062;28;19933;-66
2023/04/17 06:23:46;;;;;;;;;;;;;;;-144.99;100.00;52401.22;5058892;28;19931;-66
2023/04/17 06:26:12;;;;;;;;;;;;;;;-144.99;100.00;52401.22;5062725;28;20334;-65
2023/04/17 06:28:39;;;;;;;;;;;;;;;-144.99;100.00;52409.38;5060055;28;19978;-66
2023/04/17 06:31:06;;;;;;;;;;;;;;;-144.99;100.00;52386.94;5059962;28;20341;-67
2023/04/17 06:33:33;;;;;;;;;;;;;;;-144.99;100.00;52431.78;5054052;28;19925;-65
2023/04/17 06:36:00;;;;;;;;;;;;;;;-144.99;100.00;52397.13;5055324;28;20423;-65
2023/04/17 06:38:26;;;;;;;;;;;;;;;-144.99;100.00;52374.72;5067067;28;20299;-65
2023/04/17 06:40:53;;;;;;;;;;;;;;;-144.99;100.00;52378.78;5056833;28;20015;-65
2023/04/17 06:43:19;;;;;;;;;;;;;;;-144.99;98.21;52370.63;5068720;28;19925;-65
2023/04/17 06:45:47;;;;;;;;;;;;;;;-144.99;96.53;52395.09;5058448;28;20409;-65
2023/04/17 06:48:13;;;;;;;;;;;;;;;-144.99;95.75;52329.88;5064085;28;19982;-65
2023/04/17 06:50:41;;;;;;;;;;;;;;;-144.99;93.96;52350.25;5064147;28;19924;-65
2023/04/17 06:53:08;;;;;;;;;;;;;;;-144.99;94.57;52378.78;5055744;28;19951;-65
2023/04/17 06:55:34;;;;;;;;;;;;;;;-144.99;92.97;52395.09;5066512;28;20358;-66
2023/04/17 06:58:01;;;;;;;;;;;;;;;-144.99;92.98;52360.44;5059920;28;20026;-62
2023/04/17 07:00:27;;;;;;;;;;;;;;;-144.99;91.91;52362.50;5064595;28;19933;-64
2023/04/17 07:02:54;;;;;;;;;;;;;;;-144.99;91.53;52399.19;5067732;28;21084;-64
2023/04/17 07:05:20;;;;;;;;;;;;;;;-144.99;91.62;52374.72;5063508;28;20326;-64
2023/04/17 07:07:49;;;;;;;;;;;;;;;-144.99;90.13;52354.34;5061826;28;20298;-63
2023/04/17 07:10:18;;;;;;;;;;;;;;;-144.99;86.16;52325.81;5059442;28;19928;-63
2023/04/17 07:12:44;;;;;;;;;;;;;;;-144.99;85.49;52354.34;5058380;28;20385;-63
2023/04/17 07:15:11;;;;;;;;;;;;;;;-144.99;84.12;52325.81;5068206;28;19931;-63
2023/04/17 07:17:38;;;;;;;;;;;;;;;-144.99;83.01;52342.09;5063377;28;20024;-68
2023/04/17 07:20:05;;;;;;;;;;;;;;;-144.99;82.54;52354.34;5058270;28;19924;-69
2023/04/17 07:22:33;;;;;;;;;;;;;;;-144.99;82.29;52329.88;5063493;28;20005;-69
2023/04/17 07:25:00;;;;;;;;;;;;;;;-144.99;82.36;52340.06;5059998;28;19970;-66
2023/04/17 07:27:27;;;;;;;;;;;;;;;-144.99;82.07;52313.56;5061110;28;19971;-66
2023/04/17 07:29:54;;;;;;;;;;;;;;;-144.99;79.94;52370.63;5057550;28;19936;-65
2023/04/17 07:32:23;;;;;;;;;;;;;;;-144.99;80.01;52352.28;5059618;28;19931;-65
2023/04/17 07:34:49;;;;;;;;;;;;;;;-144.99;79.28;52370.63;5052467;28;19976;-65
2023/04/17 07:37:16;;;;;;;;;;;;;;;-144.99;79.29;52309.50;5053762;28;19989;-64
2023/04/17 07:39:43;;;;;;;;;;;;;;;-144.99;77.88;52338.03;5060576;28;19932;-65
2023/04/17 07:42:11;;;;;;;;;;;;;;;-144.99;78.30;52378.78;5053230;28;19931;-66
2023/04/17 07:44:38;;;;;;;;;;;;;;;-144.99;77.48;52362.50;5056851;28;20020;-65
2023/04/17 07:47:04;;;;;;;;;;;;;;;-144.99;76.52;52323.75;5060609;28;19960;-65
2023/04/17 07:49:31;;;;;;;;;;;;;;;-144.99;75.52;52317.66;5059494;28;19979;-65
2023/04/17 07:51:57;;;;;;;;;;;;;;;-144.99;75.62;52329.88;5056575;28;19929;-64
2023/04/17 07:54:24;;;;;;;;;;;;;;;-144.99;75.11;52313.56;5067825;28;19993;-65
2023/04/17 07:56:50;;;;;;;;;;;;;;;-144.99;74.75;52315.59;5057398;28;19929;-65
2023/04/17 07:59:18;;;;;;;;;;;;;;;-144.99;74.56;52325.81;5053742;28;20001;-65
2023/04/17 08:01:45;;;;;;;;;;;;;;;-144.99;73.80;52289.13;5059286;28;20442;-65
2023/04/17 08:04:12;;;;;;;;;;;;;;;-144.99;72.24;52313.56;5053981;28;19968;-64
2023/04/17 08:06:38;;;;;;;;;;;;;;;-144.99;71.87;52285.03;5056212;28;19971;-65
2023/04/17 08:09:05;;;;;;;;;;;;;;;-144.99;71.71;52293.19;5051734;28;19985;-65
2023/04/17 08:11:32;;;;;;;;;;;;;;;-144.99;72.26;52325.81;5066138;28;19925;-72
2023/04/17 08:13:59;;;;;;;;;;;;;;;-144.99;72.25;52333.94;5057083;28;19925;-68
2023/04/17 08:16:26;;;;;;;;;;;;;;;-144.99;72.01;52272.81;5054055;28;20394;-70
2023/04/17 08:18:53;;;;;;;;;;;;;;;-144.99;71.72;52313.56;5064923;28;20023;-68
2023/04/17 08:21:19;;;;;;;;;;;;;;;-144.99;71.35;52305.41;5056154;28;19968;-70
2023/04/17 08:23:46;;;;;;;;;;;;;;;-144.99;71.39;52293.19;5065592;28;19966;-67
2023/04/17 08:26:12;;;;;;;;;;;;;;;-144.99;71.25;52313.56;5055752;28;20298;-66
2023/04/17 08:28:39;;;;;;;;;;;;;;;-144.99;69.07;52305.41;5062158;28;20338;-67
2023/04/17 08:31:07;;;;;;;;;;;;;;;-144.99;68.57;52293.19;5059858;28;19999;-67
2023/04/17 08:33:35;;;;;;;;;;;;;;;-144.99;68.23;52297.25;5065244;28;19977;-69
2023/04/17 08:36:01;;;;;;;;;;;;;;;-144.99;68.30;52325.81;5055331;28;19924;-70
2023/04/17 08:38:30;;;;;;;;;;;;;;;-144.99;67.57;52244.28;5056137;28;19925;-68
2023/04/17 08:40:58;;;;;;;;;;;;;;;-144.99;68.12;52309.50;5052507;28;19932;-62
2023/04/17 08:43:28;;;;;;;;;;;;;;;-144.99;67.59;52285.03;5052366;28;20267;-62
2023/04/17 08:45:55;;;;;;;;;;;;;;;-144.99;67.57;52268.72;5054183;28;20028;-63
2023/04/17 08:48:22;;;;;;;;;;;;;;;-144.99;66.84;52295.22;5056501;28;20016;-62
2023/04/17 08:50:50;;;;;;;;;;;;;;;-144.99;66.84;52264.66;5054234;28;20036;-62
2023/04/17 08:53:17;;;;;;;;;;;;;;;-144.99;66.71;52309.50;5059197;28;19996;-63
2023/04/17 08:55:44;;;;;;;;;;;;;;;-144.99;66.76;52276.88;5059715;28;19993;-63
2023/04/17 08:58:11;;;;;;;;;;;;;;;-144.99;67.00;52287.06;5056400;28;20028;-62
2023/04/17 09:00:39;;;;;;;;;;;;;;;-144.99;66.67;52244.28;5053991;28;20018;-63
2023/04/17 09:03:06;;;;;;;;;;;;;;;-144.99;66.91;52305.41;5051547;28;19932;-61
2023/04/17 09:05:33;;;;;;;;;;;;;;;-144.99;66.75;52270.78;5055587;28;19925;-67
2023/04/17 09:08:20;;;;;;;;;;;;;;;-144.99;66.01;52248.34;5055755;28;19929;-68
2023/04/17 09:10:49;;;;;;;;;;;;;;;-144.99;65.48;52301.34;5051702;28;19940;-67
2023/04/17 09:13:17;;;;;;;;;;;;;;;-144.99;65.12;52264.66;5058982;28;19929;-67
2023/04/17 09:15:44;;;;;;;;;;;;;;;-144.99;64.66;52256.50;5061497;28;19932;-68
2023/04/17 09:18:24;;;;;;;;;;;;;;;-144.99;64.58;52254.47;5062562;28;20255;-67
2023/04/17 09:20:51;;;;;;;;;;;;;;;-144.99;64.91;52252.44;5063502;28;19928;-68
2023/04/17 09:23:18;;;;;;;;;;;;;;;-144.99;64.45;52260.56;5048550;28;19979;-68
2023/04/17 09:25:45;;;;;;;;;;;;;;;-144.99;64.76;52236.13;5049192;28;20015;-68
2023/04/17 09:28:14;;;;;;;;;;;;;;;-144.99;64.32;52240.19;5066619;28;20015;-68
2023/04/17 09:30:42;;;;;;;;;;;;;;;-144.99;64.00;52252.44;5062391;28;19972;-68
2023/04/17 09:33:10;;;;;;;;;;;;;;;-144.99;63.36;52211.66;5060162;28;19970;-68
2023/04/17 09:35:38;;;;;;;;;;;;;;;-144.99;62.98;52236.13;5053588;28;20020;-68
2023/04/17 09:38:05;;;;;;;;;;;;;;;-144.99;62.77;52209.63;5068668;28;20027;-68
2023/04/17 09:40:36;;;;;;;;;;;;;;;-144.99;62.62;52248.34;5062664;28;20478;-68
2023/04/17 09:43:04;;;;;;;;;;;;;;;-144.99;61.58;52260.56;5060201;28;19955;-69
2023/04/17 09:45:35;;;;;;;;;;;;;;;-144.99;61.93;52240.19;5063757;28;19989;-68
2023/04/17 09:48:02;;;;;;;;;;;;;;;-144.99;61.69;52219.81;5053155;28;20328;-68
2023/04/17 09:50:29;;;;;;;;;;;;;;;-144.99;60.99;52248.34;5054451;28;19924;-68
2023/04/17 09:52:55;;;;;;;;;;;;;;;-144.99;61.18;52256.50;5050066;28;19967;-68
2023/04/17 09:55:23;;;;;;;;;;;;;;;-144.99;60.93;52191.28;5048824;28;19936;-68
2023/04/17 09:57:50;;;;;;;;;;;;;;;-144.99;60.63;52256.50;5056548;28;19951;-68
2023/04/17 10:00:19;;;;;;;;;;;;;;;-144.99;59.96;52203.50;5048554;28;19959;-68
2023/04/17 10:02:47;;;;;;;;;;;;;;;-144.99;59.54;52223.88;5044945;28;19929;-68
2023/04/17 10:05:14;;;;;;;;;;;;;;;-144.99;59.53;52166.81;5045211;28;20047;-68
2023/04/17 10:07:43;;;;;;;;;;;;;;;-144.99;59.60;52170.91;5051115;28;19982;-68
2023/04/17 10:10:10;;;;;;;;;;;;;;;-144.99;59.38;52199.44;5052015;28;20162;-68
2023/04/17 10:12:38;;;;;;;;;;;;;;;-144.99;59.07;52170.91;5049823;28;19925;-67
2023/04/17 10:15:06;;;;;;;;;;;;;;;-144.99;59.06;52146.44;5052313;28;19932;-67
2023/04/17 10:17:33;;;;;;;;;;;;;;;-144.99;58.85;52197.41;5052174;28;19955;-68
2023/04/17 10:20:16;;;;;;;;;;;;;;;-144.99;59.10;52191.28;5049202;28;20492;-68
2023/04/17 10:22:44;;;;;;;;;;;;;;;-144.99;58.58;52203.50;5053287;28;20055;-68
2023/04/17 10:25:17;;;;;;;;;;;;;;;-144.99;58.70;52223.88;5051240;28;19971;-68
2023/04/17 10:27:45;;;;;;;;;;;;;;;-144.99;58.93;52215.75;5063599;28;19942;-68
2023/04/17 10:30:12;;;;;;;;;;;;;;;-144.99;58.95;52219.81;5067759;28;20339;-68
2023/04/17 10:32:39;;;;;;;;;;;;;;;-144.99;59.40;52223.88;5062011;28;19957;-68
2023/04/17 10:35:21;;;;;;;;;;;;;;;-144.99;59.73;52223.88;5053296;28;19943;-67
2023/04/17 10:38:10;;;;;;;;;;;;;;;-144.99;59.92;52211.66;5067456;28;19925;-69
2023/04/17 10:40:37;;;;;;;;;;;;;;;-144.99;59.54;52101.59;5065802;28;19929;-68
2023/04/17 10:43:11;;;;;;;;;;;;;;;-144.99;58.59;52093.44;5061951;28;20336;-68
2023/04/17 10:45:57;;;;;;;;;;;;;;;-144.99;57.49;52117.91;5061959;28;20050;-68
2023/04/17 10:48:27;;;;;;;;;;;;;;;-144.99;56.34;52064.91;5068059;28;19928;-67
2023/04/17 10:50:54;;;;;;;;;;;;;;;-144.99;57.30;52077.16;5062634;28;19975;-67
2023/04/17 10:53:41;;;;;;;;;;;;;;;-144.99;57.39;52060.84;5065156;28;20408;-68
2023/04/17 10:56:08;;;;;;;;;;;;;;;-144.99;56.70;52179.06;5064856;28;20297;-69
2023/04/17 10:58:37;;;;;;;;;;;;;;;-144.99;55.97;52022.13;5068199;28;19962;-68
2023/04/17 11:01:08;;;;;;;;;;;;;;;-144.99;55.52;52001.75;5061402;28;19925;-68
2023/04/17 11:03:36;;;;;;;;;;;;;;;-144.99;56.06;52177.00;5054594;28;19964;-68
2023/04/17 11:06:02;;;;;;;;;;;;;;;-144.99;55.72;51991.56;5064171;28;20015;-69
2023/04/17 11:08:29;;;;;;;;;;;;;;;-144.99;55.59;52005.81;5066210;28;19963;-70
2023/04/17 11:10:57;;;;;;;;;;;;;;;-144.99;55.40;52009.91;5065698;28;19939;-68
2023/04/17 11:13:24;;;;;;;;;;;;;;;-144.99;55.89;52048.63;5057036;28;20033;-68
2023/04/17 11:15:51;;;;;;;;;;;;;;;-144.99;55.95;52140.31;5061880;28;19928;-68
2023/04/17 11:18:17;;;;;;;;;;;;;;;-144.99;56.12;52199.44;5056046;28;19924;-68
2023/04/17 11:20:44;;;;;;;;;;;;;;;-144.99;56.70;52219.81;5066670;28;19995;-71
2023/04/17 11:23:11;;;;;;;;;;;;;;;-144.99;56.11;52026.19;5052166;28;19929;-68
2023/04/17 11:25:40;;;;;;;;;;;;;;;-144.99;56.14;52199.44;5056524;28;19924;-69
2023/04/17 11:28:08;;;;;;;;;;;;;;;-144.99;56.25;52079.19;4357706;28;10000847;-69
2023/04/17 11:30:35;;;;;;;;;;;;;;;-144.99;56.14;52089.38;5055213;28;20336;-69
2023/04/17 11:33:02;;;;;;;;;;;;;;;-144.99;56.75;52040.47;5063097;28;19947;-68
2023/04/17 11:35:29;;;;;;;;;;;;;;;-144.99;55.87;52048.63;5058665;28;19982;-68
2023/04/17 11:38:06;;;;;;;;;;;;;;;-144.99;55.56;52073.06;5058331;28;20431;-68
2023/04/17 11:40:33;;;;;;;;;;;;;;;-144.99;56.34;52199.44;5066713;28;20065;-67
2023/04/17 11:43:03;;;;;;;;;;;;;;;-144.99;56.84;52044.53;5058262;28;19924;-68
2023/04/17 11:45:33;;;;;;;;;;;;;;;-144.99;57.50;52060.84;5067182;28;19974;-68
2023/04/17 11:47:59;;;;;;;;;;;;;;;-144.99;56.92;52089.38;5059037;28;19943;-69
2023/04/17 11:50:28;;;;;;;;;;;;;;;-144.99;57.02;52097.53;5047600;28;20406;-68
2023/04/17 11:52:56;;;;;;;;;;;;;;;-144.99;56.40;52050.66;5054302;28;19925;-69
2023/04/17 11:55:22;;;;;;;;;;;;;;;-144.99;55.97;52040.47;5047486;28;20011;-68
2023/04/17 11:57:51;;;;;;;;;;;;;;;-144.99;54.77;52028.22;5060753;28;19962;-69
2023/04/17 12:00:18;;;;;;;;;;;;;;;-144.99;54.32;52050.66;5049400;28;19974;-67
2023/04/17 12:02:46;;;;;;;;;;;;;;;-144.99;54.41;52016.00;5060292;28;20020;-67
2023/04/17 12:05:13;;;;;;;;;;;;;;;-144.99;54.48;52044.53;5057995;28;20093;-68
2023/04/17 12:07:43;;;;;;;;;;;;;;;-144.99;53.84;52052.69;5056045;28;19959;-68
2023/04/17 12:10:09;;;;;;;;;;;;;;;-144.99;53.15;52024.16;5046751;28;19929;-68
2023/04/17 12:12:36;;;;;;;;;;;;;;;-144.99;54.99;52044.53;5048163;28;19932;-68
2023/04/17 12:15:03;;;;;;;;;;;;;;;-144.99;53.33;52042.50;5057665;28;20035;-69
2023/04/17 12:17:29;;;;;;;;;;;;;;;-144.99;53.59;52044.53;5050666;28;19978;-69
2023/04/17 12:20:01;;;;;;;;;;;;;;;-144.99;53.76;52064.91;5055290;28;19987;-69
2023/04/17 12:22:28;;;;;;;;;;;;;;;-144.99;54.20;52048.63;5057362;28;20014;-68
2023/04/17 12:24:55;;;;;;;;;;;;;;;-144.99;53.83;52001.75;5059448;28;20492;-68